Fort Severn, Canada
Current Conditions -  °F | °C
As of 9:32 PM on Saturday 25 Oct 2014 (Local Time) from CYER Reporting Station
Overcast Overcast  
Wind Chill:   Ceiling: 3400
Heat Index:   Visibility: 9mi
Dew Point:   Wind: 12mph
Humidity: 87%   Direction: 290°WNW
Pressure: 29.53"   Gusts: 18mph
Location:  55.98°N, 87.65°W
Report Text: CYER 260132Z AUTO 29010G16KT 9SM SCT016 OVC034 05/03 A2953 RMK SLP000
Loading
Personal Weather Stations






























Interactive Weather Map
Tropical Storm Tracking
New forecast layout! Learn more

10-Day Weather Forecast

Advertisements
Track Severe Weather on mobile